Time;durP1;ratioP1;P1;durP2;ratioP2;P2;SDS_P1;SDS_P2;PMS_P1;PMS_P2;Temp;Humidity;BMP_temperature;BMP_pressure;BME280_temperature;BME280_humidity;BME280_pressure;Samples;Min_cycle;Max_cycle;Signal;HPM_P1;HPM_P2
2023/03/09 00:02:16;;;;;;;18.33;12.30;;;;;;;1.78;100.00;98593.38;4993927;28;20516;-80
2023/03/09 00:04:44;;;;;;;13.50;9.13;;;;;;;1.75;100.00;98594.53;4977556;28;20070;-76
2023/03/09 00:07:13;;;;;;;8.85;6.78;;;;;;;1.80;100.00;98596.69;4993921;28;20038;-77
2023/03/09 00:09:38;;;;;;;17.20;10.93;;;;;;;1.78;100.00;98590.72;4992951;28;20030;-77
2023/03/09 00:12:05;;;;;;;18.88;9.48;;;;;;;1.78;100.00;98592.56;4977838;28;20049;-77
2023/03/09 00:14:31;;;;;;;15.65;9.13;;;;;;;1.73;100.00;98583.28;4977018;28;20034;-76
2023/03/09 00:16:56;;;;;;;15.50;10.13;;;;;;;1.86;100.00;98588.03;4994139;28;20531;-79
2023/03/09 00:19:26;;;;;;;17.65;9.40;;;;;;;1.81;100.00;98586.91;4994228;28;20450;-78
2023/03/09 00:21:54;;;;;;;18.88;8.77;;;;;;;1.81;100.00;98600.16;4962054;28;20030;-78
2023/03/09 00:24:26;;;;;;;15.88;8.90;;;;;;;1.84;100.00;98594.50;4961750;28;20030;-77
2023/03/09 00:27:00;;;;;;;12.43;7.72;;;;;;;1.83;100.00;98590.22;4993460;28;20069;-77
2023/03/09 00:29:28;;;;;;;18.73;10.65;;;;;;;1.83;100.00;98596.34;4961875;28;20400;-77
2023/03/09 00:32:01;;;;;;;16.63;10.65;;;;;;;1.79;100.00;98583.59;4977330;28;20068;-77
2023/03/09 00:34:26;;;;;;;20.15;11.63;;;;;;;1.83;100.00;98582.28;4977850;28;20070;-77
2023/03/09 00:36:52;;;;;;;19.05;9.02;;;;;;;1.78;100.00;98593.38;4977166;28;20066;-77
2023/03/09 00:39:18;;;;;;;27.67;11.88;;;;;;;1.88;100.00;98590.50;4961525;28;20041;-78
2023/03/09 00:41:44;;;;;;;22.23;11.32;;;;;;;1.84;100.00;98591.84;4994510;28;20061;-77
2023/03/09 00:44:12;;;;;;;26.20;11.18;;;;;;;1.86;100.00;98589.88;4993644;28;20030;-78
2023/03/09 00:46:38;;;;;;;21.90;13.65;;;;;;;1.90;100.00;98583.22;4961414;28;20034;-79
2023/03/09 00:49:06;;;;;;;23.90;14.45;;;;;;;2.09;100.00;98577.47;4976669;28;20049;-77
2023/03/09 00:51:33;;;;;;;15.88;11.45;;;;;;;2.10;100.00;98565.88;4977575;28;20034;-77
2023/03/09 00:53:59;;;;;;;25.13;13.48;;;;;;;2.09;100.00;98573.97;4976336;28;20481;-81
2023/03/09 00:56:27;;;;;;;15.63;7.28;;;;;;;2.09;100.00;98573.97;4977394;28;20038;-79
2023/03/09 00:58:53;;;;;;;22.27;11.98;;;;;;;2.07;100.00;98571.53;4993631;28;20068;-78
2023/03/09 01:01:19;;;;;;;17.73;7.65;;;;;;;2.10;100.00;98567.69;4977011;28;20149;-81
2023/03/09 01:03:45;;;;;;;18.75;11.60;;;;;;;2.05;100.00;98557.63;4977064;28;20105;-77
2023/03/09 01:06:12;;;;;;;24.25;12.40;;;;;;;2.15;100.00;98558.22;4976993;28;20649;-83
2023/03/09 01:08:38;;;;;;;27.73;15.93;;;;;;;2.28;100.00;98554.16;4993141;28;20034;-77
2023/03/09 01:11:11;;;;;;;26.70;16.45;;;;;;;2.22;100.00;98544.25;4993458;28;20033;-77
2023/03/09 01:13:37;;;;;;;26.52;17.75;;;;;;;2.28;100.00;98546.22;4960578;28;20030;-78
2023/03/09 01:16:03;;;;;;;22.73;11.77;;;;;;;2.27;100.00;98547.19;4977089;28;20100;-77
2023/03/09 01:18:29;;;;;;;18.92;10.27;;;;;;;2.25;100.00;98557.16;4977090;28;20089;-77
2023/03/09 01:20:55;;;;;;;29.83;13.75;;;;;;;2.20;100.00;98563.81;4960424;28;20030;-76
2023/03/09 01:23:20;;;;;;;15.35;10.10;;;;;;;2.07;100.00;98563.56;4960304;28;20546;-77
2023/03/09 01:25:46;;;;;;;20.80;13.45;;;;;;;2.08;100.00;98567.88;4992880;28;20469;-81
2023/03/09 01:28:12;;;;;;;21.50;10.18;;;;;;;2.00;100.00;98561.78;4976005;28;20042;-77
2023/03/09 01:30:41;;;;;;;24.90;13.57;;;;;;;1.80;100.00;98541.03;4977196;28;20026;-77
2023/03/09 01:33:06;;;;;;;27.42;13.93;;;;;;;1.87;100.00;98552.56;4961262;28;20366;-77
2023/03/09 01:35:32;;;;;;;20.70;10.50;;;;;;;1.93;100.00;98556.34;4976180;28;20480;-77
2023/03/09 01:37:58;;;;;;;22.58;10.23;;;;;;;1.86;100.00;98529.75;4992872;28;20492;-77
2023/03/09 01:40:26;;;;;;;23.10;15.75;;;;;;;2.05;100.00;98560.25;4976616;28;20027;-77
2023/03/09 01:42:56;;;;;;;17.38;8.50;;;;;;;1.93;100.00;98566.94;4975879;28;20066;-77
2023/03/09 01:45:25;;;;;;;21.27;9.80;;;;;;;1.89;100.00;98569.13;4976297;28;20045;-76
2023/03/09 01:47:51;;;;;;;21.65;11.38;;;;;;;1.80;100.00;98569.34;4976407;28;20092;-77
2023/03/09 01:50:19;;;;;;;20.42;10.43;;;;;;;1.72;100.00;98557.81;4992850;28;20038;-78
2023/03/09 01:52:45;;;;;;;32.83;16.27;;;;;;;1.72;100.00;98546.34;4960195;28;20041;-82
2023/03/09 01:55:24;;;;;;;27.73;17.83;;;;;;;1.78;100.00;98547.50;4960172;28;20092;-78
2023/03/09 01:58:00;;;;;;;20.80;12.52;;;;;;;1.73;100.00;98540.91;4960544;28;20034;-75
2023/03/09 02:00:25;;;;;;;31.23;17.88;;;;;;;1.78;100.00;98539.56;4976639;28;20501;-76
2023/03/09 02:03:07;;;;;;;25.17;11.27;;;;;;;1.61;100.00;98544.91;4992864;28;20117;-81
2023/03/09 02:05:40;;;;;;;18.70;9.80;;;;;;;1.57;100.00;98521.63;4960881;28;20185;-82
2023/03/09 02:08:07;;;;;;;26.38;14.25;;;;;;;1.56;100.00;98533.19;4959923;28;20038;-77
2023/03/09 02:10:35;;;;;;;20.48;10.95;;;;;;;1.49;100.00;98525.94;4960654;28;20049;-78
2023/03/09 02:13:13;;;;;;;29.02;14.63;;;;;;;1.41;100.00;98502.16;4992510;28;20053;-76
2023/03/09 02:15:39;;;;;;;23.80;10.98;;;;;;;1.46;100.00;98514.88;4976124;28;20421;-76
2023/03/09 02:18:05;;;;;;;22.33;10.70;;;;;;;1.38;100.00;98510.44;4976576;28;20041;-76
2023/03/09 02:20:37;;;;;;;21.23;10.88;;;;;;;1.30;100.00;98490.13;4959503;28;20121;-76
2023/03/09 02:23:06;;;;;;;19.25;10.10;;;;;;;1.24;100.00;98496.09;4976412;28;20037;-77
2023/03/09 02:25:33;;;;;;;24.90;12.88;;;;;;;1.22;100.00;98492.81;4992609;28;20041;-81
2023/03/09 02:28:03;;;;;;;27.30;9.82;;;;;;;1.16;100.00;98488.19;4975769;28;20030;-76
2023/03/09 02:30:30;;;;;;;15.57;10.45;;;;;;;1.15;100.00;98491.03;4960715;28;20034;-77
2023/03/09 02:33:08;;;;;;;15.20;7.78;;;;;;;1.09;100.00;98476.66;4976092;28;20034;-76
2023/03/09 02:35:37;;;;;;;10.35;6.07;;;;;;;1.09;100.00;98476.66;4960257;28;20045;-83
2023/03/09 02:38:02;;;;;;;11.43;5.57;;;;;;;1.05;100.00;98481.44;4963644;28;20038;-76
2023/03/09 02:40:34;;;;;;;4.63;2.72;;;;;;;1.05;100.00;98473.50;4962304;28;20092;-78
2023/03/09 02:43:05;;;;;;;16.70;5.13;;;;;;;1.05;100.00;98470.84;4963791;28;20484;-78
2023/03/09 02:45:34;;;;;;;6.15;3.50;;;;;;;1.05;100.00;98464.75;4962759;28;20814;-77
2023/03/09 02:48:00;;;;;;;0.93;0.77;;;;;;;0.98;100.00;98463.75;4963450;28;20041;-80
2023/03/09 02:50:28;;;;;;;1.88;1.67;;;;;;;1.05;100.00;98475.31;4963159;28;20038;-77
2023/03/09 02:52:56;;;;;;;7.82;4.38;;;;;;;0.98;100.00;98459.31;4962747;28;20057;-78
2023/03/09 02:55:22;;;;;;;1.65;1.00;;;;;;;0.93;100.00;98450.22;4979508;28;20030;-78
2023/03/09 02:57:50;;;;;;;7.70;4.53;;;;;;;1.02;100.00;98467.75;4995166;28;20045;-78
2023/03/09 03:00:24;;;;;;;1.17;1.08;;;;;;;1.01;100.00;98461.63;4995040;28;20122;-79
2023/03/09 03:02:50;;;;;;;1.87;1.73;;;;;;;0.99;100.00;98465.44;4963701;28;20030;-76
2023/03/09 03:05:16;;;;;;;4.05;2.63;;;;;;;0.99;100.00;98431.03;4962328;28;20616;-78
2023/03/09 03:07:44;;;;;;;1.13;1.08;;;;;;;0.93;100.00;98437.00;4995758;28;20046;-76
2023/03/09 03:10:11;;;;;;;1.55;1.15;;;;;;;0.95;100.00;98456.19;4978983;28;20022;-76
2023/03/09 03:12:37;;;;;;;4.20;2.75;;;;;;;0.92;100.00;98422.13;4962749;28;20042;-79
2023/03/09 03:15:04;;;;;;;2.53;1.45;;;;;;;0.83;100.00;98430.09;4963159;28;20109;-81
2023/03/09 03:17:29;;;;;;;1.80;1.48;;;;;;;0.91;100.00;98423.13;4995138;28;20038;-84
2023/03/09 03:19:57;;;;;;;2.85;1.20;;;;;;;0.87;100.00;98428.78;4978166;28;20038;-80
2023/03/09 03:22:23;;;;;;;4.78;2.63;;;;;;;0.88;100.00;98425.13;4994284;28;20078;-77
2023/03/09 03:24:52;;;;;;;0.50;0.50;;;;;;;0.86;100.00;98424.47;4979008;28;20057;-78
2023/03/09 03:27:18;;;;;;;0.88;0.68;;;;;;;0.80;100.00;98405.81;4994098;28;20030;-78
2023/03/09 03:29:45;;;;;;;1.67;1.67;;;;;;;0.83;100.00;98411.56;4962965;28;20056;-77
2023/03/09 03:32:11;;;;;;;6.00;3.28;;;;;;;0.74;100.00;98396.75;4978995;28;20066;-85
2023/03/09 03:34:37;;;;;;;0.57;0.57;;;;;;;0.79;100.00;98404.16;4978765;28;20027;-77
2023/03/09 03:37:05;;;;;;;1.38;1.08;;;;;;;0.71;100.00;98386.47;4978802;28;20026;-76
2023/03/09 03:39:31;;;;;;;0.50;0.50;;;;;;;0.72;100.00;98389.97;4977898;28;20026;-78
2023/03/09 03:42:00;;;;;;;1.83;1.58;;;;;;;0.60;100.00;98365.72;4994479;28;20400;-76
2023/03/09 03:44:26;;;;;;;2.83;1.77;;;;;;;0.64;100.00;98385.53;4978245;28;20418;-77
2023/03/09 03:46:54;;;;;;;2.13;1.15;;;;;;;0.63;100.00;98386.50;4994812;28;20037;-77
2023/03/09 03:49:23;;;;;;;0.65;0.65;;;;;;;0.60;100.00;98382.38;4961064;28;20381;-83
2023/03/09 03:51:48;;;;;;;0.60;0.60;;;;;;;0.55;100.00;98376.78;4961988;28;20038;-77
2023/03/09 03:54:14;;;;;;;3.45;1.67;;;;;;;0.51;100.00;98369.38;4962047;28;20096;-77
2023/03/09 03:56:40;;;;;;;0.95;0.95;;;;;;;0.46;100.00;98369.06;4961878;28;20049;-77
2023/03/09 03:59:07;;;;;;;4.25;2.13;;;;;;;0.43;100.00;98362.31;4962455;28;20034;-77
2023/03/09 04:01:33;;;;;;;1.48;1.13;;;;;;;0.38;100.00;98357.50;4993901;28;20038;-77
2023/03/09 04:03:59;;;;;;;2.13;1.38;;;;;;;0.41;100.00;98353.72;4994129;28;20400;-77
2023/03/09 04:06:25;;;;;;;0.70;0.70;;;;;;;0.43;100.00;98349.09;4962348;28;20058;-76
2023/03/09 04:08:56;;;;;;;1.58;1.33;;;;;;;0.42;100.00;98353.56;4963466;28;20470;-76
2023/03/09 04:11:30;;;;;;;0.93;0.65;;;;;;;0.46;100.00;98343.44;4993925;28;20030;-76
2023/03/09 04:13:56;;;;;;;4.60;2.28;;;;;;;0.48;100.00;98359.97;4962266;28;20042;-77
2023/03/09 04:16:24;;;;;;;1.23;1.08;;;;;;;0.47;100.00;98353.03;4994228;28;20101;-80
2023/03/09 04:18:50;;;;;;;1.35;1.02;;;;;;;0.46;100.00;98353.22;4962160;28;20469;-77
2023/03/09 04:21:18;;;;;;;1.45;1.02;;;;;;;0.42;100.00;98352.69;4977902;28;20076;-77
2023/03/09 04:23:44;;;;;;;2.92;2.67;;;;;;;0.39;100.00;98363.63;4977464;28;20366;-78
2023/03/09 04:26:11;;;;;;;0.68;0.68;;;;;;;0.36;100.00;98362.13;4962112;28;20088;-78
2023/03/09 04:28:36;;;;;;;1.48;1.13;;;;;;;0.36;100.00;98354.22;4993527;28;20038;-80
2023/03/09 04:31:02;;;;;;;2.33;1.20;;;;;;;0.39;100.00;98364.44;4977483;28;20088;-76
2023/03/09 04:33:27;;;;;;;0.88;0.77;;;;;;;0.39;100.00;98364.44;4994135;28;20381;-77
2023/03/09 04:35:53;;;;;;;2.70;1.55;;;;;;;0.32;100.00;98329.13;4960860;28;20057;-80
2023/03/09 04:38:26;;;;;;;3.80;2.03;;;;;;;0.42;100.00;98352.69;4961748;28;20155;-77
2023/03/09 04:40:57;;;;;;;3.38;2.35;;;;;;;0.37;100.00;98344.44;4978273;28;20124;-77
2023/03/09 04:43:25;;;;;;;5.28;2.80;;;;;;;0.41;100.00;98338.66;4993501;28;20078;-77
2023/03/09 04:45:50;;;;;;;4.50;1.92;;;;;;;0.42;100.00;98342.97;4961908;28;20038;-77
2023/03/09 04:48:16;;;;;;;1.58;0.93;;;;;;;0.42;100.00;98337.69;4976695;28;20030;-76
2023/03/09 04:50:45;;;;;;;1.67;0.70;;;;;;;0.41;100.00;98338.66;4993003;28;20045;-81
2023/03/09 04:53:13;;;;;;;1.13;1.02;;;;;;;0.39;100.00;98337.19;4977075;28;20385;-78
2023/03/09 04:55:39;;;;;;;7.70;5.07;;;;;;;0.36;100.00;98337.53;4977498;28;20038;-77
2023/03/09 04:58:08;;;;;;;1.80;1.42;;;;;;;0.36;100.00;98340.19;4976940;28;20038;-76
2023/03/09 05:00:34;;;;;;;4.72;2.67;;;;;;;0.25;100.00;98325.50;4976813;28;20057;-77
2023/03/09 05:02:59;;;;;;;6.22;3.25;;;;;;;0.30;100.00;98322.34;4960532;28;20120;-80
2023/03/09 05:05:28;;;;;;;0.95;0.82;;;;;;;0.11;100.00;98305.06;4976578;28;20160;-78
2023/03/09 05:07:53;;;;;;;2.42;1.50;;;;;;;0.26;100.00;98326.31;4992361;28;20397;-78
2023/03/09 05:10:19;;;;;;;3.03;1.30;;;;;;;0.27;100.00;98325.34;4977377;28;20042;-79
2023/03/09 05:12:48;;;;;;;1.45;1.30;;;;;;;0.27;100.00;98318.25;4976963;28;20038;-77
2023/03/09 05:15:14;;;;;;;1.73;1.63;;;;;;;0.23;100.00;98314.28;4960756;28;20121;-76
2023/03/09 05:17:41;;;;;;;3.83;1.65;;;;;;;0.21;100.00;98314.47;4961182;28;20464;-78
2023/03/09 05:20:10;;;;;;;1.63;1.52;;;;;;;0.21;100.00;98313.59;4977171;28;20465;-77
2023/03/09 05:22:38;;;;;;;4.68;3.03;;;;;;;0.19;100.00;98312.97;4992734;28;20026;-77
2023/03/09 05:25:05;;;;;;;2.33;2.03;;;;;;;0.19;100.00;98302.41;4977566;28;20046;-76
2023/03/09 05:27:31;;;;;;;1.83;1.50;;;;;;;0.17;100.00;98307.03;4960213;28;20049;-80
2023/03/09 05:29:57;;;;;;;5.30;3.45;;;;;;;0.12;100.00;98294.31;4992461;28;20105;-83
2023/03/09 05:32:23;;;;;;;2.40;1.30;;;;;;;0.14;100.00;98297.63;4976928;28;20438;-78
2023/03/09 05:34:49;;;;;;;3.28;1.77;;;;;;;0.16;100.00;98300.06;4960572;28;20045;-77
2023/03/09 05:37:14;;;;;;;3.92;2.50;;;;;;;0.20;100.00;98301.41;4960663;28;20440;-83
2023/03/09 05:39:40;;;;;;;2.70;2.15;;;;;;;0.20;100.00;98289.00;4960707;28;20031;-78
2023/03/09 05:42:09;;;;;;;6.07;2.42;;;;;;;0.22;100.00;98291.50;4992407;28;20054;-79
2023/03/09 05:44:35;;;;;;;0.80;0.80;;;;;;;0.20;100.00;98293.47;4992643;28;20559;-81
2023/03/09 05:47:01;;;;;;;3.20;1.83;;;;;;;0.11;100.00;98270.72;4976593;28;20034;-83
2023/03/09 05:49:30;;;;;;;2.22;1.55;;;;;;;0.18;100.00;98271.66;4960786;28;20038;-78
2023/03/09 05:51:59;;;;;;;1.65;1.02;;;;;;;0.11;100.00;98276.00;4992297;28;20065;-85
2023/03/09 05:54:27;;;;;;;3.03;1.40;;;;;;;0.05;100.00;98256.34;4960527;28;20073;-79
2023/03/09 05:56:54;;;;;;;0.68;0.68;;;;;;;0.06;100.00;98286.25;4960681;28;20473;-80
2023/03/09 05:59:20;;;;;;;3.60;1.58;;;;;;;0.01;100.00;98278.84;4975755;28;20065;-80
2023/03/09 06:01:46;;;;;;;5.80;2.88;;;;;;;-0.03;100.00;98270.44;4960693;28;20489;-82
2023/03/09 06:04:11;;;;;;;6.20;2.65;;;;;;;-0.04;100.00;98271.41;4976187;28;20060;-80
2023/03/09 06:06:40;;;;;;;2.92;0.95;;;;;;;-0.03;100.00;98285.44;4977262;28;20034;-79
2023/03/09 06:09:08;;;;;;;4.00;2.33;;;;;;;-0.06;100.00;98281.31;4961165;28;20032;-78
2023/03/09 06:11:34;;;;;;;1.27;1.17;;;;;;;-0.04;100.00;98283.81;4978158;28;20070;-80
2023/03/09 06:14:01;;;;;;;1.02;0.90;;;;;;;-0.11;100.00;98266.97;4964355;28;20030;-79
2023/03/09 06:16:27;;;;;;;1.17;1.15;;;;;;;-0.08;100.00;98277.19;4980880;28;20061;-83
2023/03/09 06:18:56;;;;;;;2.42;1.70;;;;;;;-0.15;100.00;98242.72;4980267;28;20113;-79
2023/03/09 06:21:21;;;;;;;2.53;1.52;;;;;;;-0.09;100.00;98271.09;4980256;28;20113;-80
2023/03/09 06:23:47;;;;;;;4.82;2.50;;;;;;;-0.08;100.00;98271.91;4980164;28;20105;-83
2023/03/09 06:26:16;;;;;;;0.65;0.65;;;;;;;-0.09;100.00;98265.81;4996432;28;20029;-79
2023/03/09 06:28:41;;;;;;;0.93;0.93;;;;;;;-0.08;100.00;98261.34;4980210;28;20030;-79
2023/03/09 06:31:11;;;;;;;0.80;0.80;;;;;;;-0.19;100.00;98251.16;4997414;28;20048;-84
2023/03/09 06:33:38;;;;;;;2.67;1.90;;;;;;;-0.13;100.00;98248.66;4980576;28;20038;-79
2023/03/09 06:36:04;;;;;;;3.53;1.70;;;;;;;-0.13;100.00;98253.94;4980182;28;20034;-81
2023/03/09 06:38:30;;;;;;;2.47;2.22;;;;;;;-0.14;100.00;98254.91;4964096;28;20121;-80
2023/03/09 06:40:56;;;;;;;4.45;2.58;;;;;;;-0.13;100.00;98259.22;4980151;28;20129;-84
2023/03/09 06:43:22;;;;;;;0.93;0.90;;;;;;;-0.31;100.00;98225.09;4979882;28;20190;-80
2023/03/09 06:45:48;;;;;;;0.65;0.65;;;;;;;-0.12;100.00;98249.47;4995842;28;20038;-84
2023/03/09 06:48:14;;;;;;;1.58;1.38;;;;;;;-0.15;100.00;98242.72;4997255;28;20034;-80
2023/03/09 06:50:39;;;;;;;2.03;1.10;;;;;;;-0.15;100.00;98232.16;4963943;28;20061;-83
2023/03/09 06:53:05;;;;;;;1.88;1.48;;;;;;;-0.14;100.00;98228.50;4979756;28;20042;-81
2023/03/09 06:55:35;;;;;;;0.60;0.60;;;;;;;-0.15;100.00;98228.69;4997227;28;20164;-80
2023/03/09 06:58:01;;;;;;;1.33;1.00;;;;;;;-0.15;100.00;98218.13;4963895;28;20096;-81
2023/03/09 07:00:27;;;;;;;3.17;2.05;;;;;;;-0.15;100.00;98226.06;4979720;28;20563;-81
2023/03/09 07:02:52;;;;;;;1.88;1.27;;;;;;;-0.23;100.00;98208.41;4966183;28;20030;-80
2023/03/09 07:05:18;;;;;;;5.60;2.85;;;;;;;-0.18;100.00;98221.94;5001242;28;20461;-80
2023/03/09 07:07:44;;;;;;;1.13;0.90;;;;;;;-0.16;100.00;98219.09;4997354;28;20031;-82
2023/03/09 07:10:12;;;;;;;2.38;1.73;;;;;;;-0.22;100.00;98210.88;4998836;28;20026;-81
2023/03/09 07:12:38;;;;;;;2.78;1.90;;;;;;;-0.14;100.00;98227.69;4997214;28;20109;-81
2023/03/09 07:15:05;;;;;;;1.92;1.75;;;;;;;-0.15;100.00;98213.66;4998994;28;20471;-81
2023/03/09 07:17:31;;;;;;;3.30;1.65;;;;;;;-0.13;100.00;98222.25;4966547;28;20497;-81
2023/03/09 07:19:57;;;;;;;0.93;0.80;;;;;;;-0.11;100.00;98209.69;4979743;28;20073;-80
2023/03/09 07:22:23;;;;;;;1.13;1.02;;;;;;;-0.14;100.00;98196.81;4996084;28;20031;-80
2023/03/09 07:24:49;;;;;;;2.47;1.85;;;;;;;-0.23;100.00;98196.03;4995562;28;20050;-80
2023/03/09 07:27:14;;;;;;;2.72;1.50;;;;;;;-0.11;100.00;98212.31;4979840;28;20507;-81
2023/03/09 07:29:40;;;;;;;2.53;1.65;;;;;;;-0.08;100.00;98190.88;4995675;28;20031;-84
2023/03/09 07:32:07;;;;;;;2.10;1.20;;;;;;;-0.08;100.00;98209.38;4964537;28;20097;-81
2023/03/09 07:34:33;;;;;;;1.05;0.85;;;;;;;-0.11;100.00;98177.97;4964329;28;20053;-80
2023/03/09 07:37:00;;;;;;;0.75;0.75;;;;;;;-0.07;100.00;98195.16;4994771;28;20046;-80
2023/03/09 07:39:25;;;;;;;0.90;0.85;;;;;;;-0.04;100.00;98188.69;4994907;28;20461;-83
2023/03/09 07:41:51;;;;;;;1.50;1.23;;;;;;;-0.06;100.00;98166.91;4995863;28;20026;-79
2023/03/09 07:44:17;;;;;;;1.30;1.20;;;;;;;-0.07;100.00;98195.16;4978166;28;20026;-80
2023/03/09 07:46:42;;;;;;;1.85;1.17;;;;;;;-0.10;100.00;98176.19;4994235;28;20041;-81
2023/03/09 07:49:08;;;;;;;0.88;0.75;;;;;;;-0.12;100.00;98179.00;4995399;28;20077;-82
2023/03/09 07:51:35;;;;;;;0.60;0.60;;;;;;;-0.06;100.00;98182.75;4994665;28;20476;-80
2023/03/09 07:54:01;;;;;;;2.00;1.20;;;;;;;-0.06;100.00;98154.53;4978169;28;20384;-78
2023/03/09 07:56:27;;;;;;;0.60;0.60;;;;;;;-0.05;100.00;98181.78;4978048;28;20038;-79
2023/03/09 07:58:54;;;;;;;1.00;0.70;;;;;;;-0.02;100.00;98169.03;4978177;28;20049;-79
2023/03/09 08:01:20;;;;;;;1.15;1.02;;;;;;;-0.06;100.00;98159.81;4977853;28;20077;-79
2023/03/09 08:03:46;;;;;;;0.73;0.70;;;;;;;0.04;100.00;98158.78;4977776;28;20070;-79
2023/03/09 08:06:12;;;;;;;1.10;0.80;;;;;;;0.00;100.00;98160.97;4978135;28;20485;-79
2023/03/09 08:08:39;;;;;;;0.60;0.60;;;;;;;0.10;100.00;98164.19;4993353;28;20070;-78
2023/03/09 08:11:05;;;;;;;0.75;0.75;;;;;;;0.12;100.00;98169.31;4977520;28;20374;-79
2023/03/09 08:13:31;;;;;;;0.80;0.80;;;;;;;0.15;100.00;98153.09;4961906;28;20480;-79
2023/03/09 08:16:04;;;;;;;1.40;0.80;;;;;;;0.17;100.00;98143.19;4977484;28;20058;-79
2023/03/09 08:18:30;;;;;;;2.47;1.50;;;;;;;0.20;100.00;98164.81;4977533;28;20087;-80
2023/03/09 08:21:06;;;;;;;0.77;0.77;;;;;;;0.18;100.00;98155.41;4977128;28;20034;-81
2023/03/09 08:23:34;;;;;;;1.58;0.93;;;;;;;0.14;100.00;98154.94;4961905;28;20049;-81
2023/03/09 08:26:00;;;;;;;1.35;0.98;;;;;;;0.18;100.00;98155.41;4961901;28;20068;-83
2023/03/09 08:28:28;;;;;;;1.00;0.90;;;;;;;0.08;100.00;98142.44;4993394;28;20030;-84
2023/03/09 08:30:54;;;;;;;1.77;0.82;;;;;;;0.19;100.00;98138.56;4977818;28;20041;-82
2023/03/09 08:33:20;;;;;;;1.13;0.90;;;;;;;0.14;100.00;98138.25;4993684;28;20552;-84
2023/03/09 08:35:46;;;;;;;0.50;0.50;;;;;;;0.17;100.00;98132.63;4994063;28;20038;-79
2023/03/09 08:38:11;;;;;;;2.08;1.35;;;;;;;0.16;100.00;98126.53;4993457;28;20026;-81
2023/03/09 08:40:38;;;;;;;0.55;0.55;;;;;;;0.15;100.00;98130.16;4976885;28;20389;-81
2023/03/09 08:43:04;;;;;;;1.33;0.95;;;;;;;0.14;100.00;98111.84;4994360;28;20037;-81
2023/03/09 08:45:29;;;;;;;1.63;1.13;;;;;;;0.25;100.00;98122.00;4978554;28;20045;-81
2023/03/09 08:47:55;;;;;;;1.95;1.83;;;;;;;0.28;100.00;98119.00;4978578;28;20381;-80
2023/03/09 08:50:23;;;;;;;0.77;0.77;;;;;;;0.36;100.00;98118.94;4994046;28;20113;-81
2023/03/09 08:52:49;;;;;;;0.77;0.77;;;;;;;0.39;100.00;98115.94;4978627;28;20041;-80
2023/03/09 08:55:15;;;;;;;1.95;1.20;;;;;;;0.42;100.00;98112.97;4977236;28;20465;-81
2023/03/09 08:57:41;;;;;;;1.17;0.90;;;;;;;0.44;100.00;98102.22;4945232;28;20085;-84
2023/03/09 09:00:11;;;;;;;1.35;1.15;;;;;;;0.50;100.00;98105.97;4977390;28;20034;-83
2023/03/09 09:02:38;;;;;;;0.70;0.70;;;;;;;0.36;100.00;98058.16;4994231;28;20085;-78
2023/03/09 09:05:04;;;;;;;1.38;0.80;;;;;;;0.54;100.00;98086.13;4976829;28;20058;-79
2023/03/09 09:07:30;;;;;;;1.13;0.85;;;;;;;0.59;100.00;98078.47;4993174;28;20102;-81
2023/03/09 09:09:58;;;;;;;0.95;0.82;;;;;;;0.55;100.00;98053.38;4977148;28;20030;-80
2023/03/09 09:12:25;;;;;;;1.70;1.00;;;;;;;0.62;100.00;98039.28;4977241;28;20041;-78
2023/03/09 09:14:52;;;;;;;2.25;1.30;;;;;;;0.67;100.00;98037.94;4977398;28;20053;-80
2023/03/09 09:17:17;;;;;;;0.63;0.63;;;;;;;0.65;100.00;98019.59;4993017;28;20026;-78
2023/03/09 09:19:43;;;;;;;1.30;1.00;;;;;;;0.67;100.00;98032.66;4992784;28;20421;-77
2023/03/09 09:22:09;;;;;;;0.80;0.70;;;;;;;0.68;100.00;97987.50;4992573;28;20038;-81
2023/03/09 09:24:36;;;;;;;2.53;1.35;;;;;;;0.71;100.00;98021.50;4992564;28;20088;-80
2023/03/09 09:27:06;;;;;;;1.83;1.38;;;;;;;0.71;100.00;98023.31;4976488;28;20037;-81
2023/03/09 09:29:36;;;;;;;0.60;0.60;;;;;;;0.74;100.00;98034.38;4976688;28;20046;-78
2023/03/09 09:32:06;;;;;;;0.73;0.70;;;;;;;0.63;100.00;98013.66;4976636;28;20039;-80
2023/03/09 09:34:33;;;;;;;1.40;1.15;;;;;;;0.70;100.00;98011.94;4994060;28;20034;-81
2023/03/09 09:37:00;;;;;;;0.85;0.85;;;;;;;0.70;100.00;98016.41;4976154;28;20039;-79
2023/03/09 09:39:28;;;;;;;1.25;0.80;;;;;;;0.77;100.00;98034.03;4976199;28;20027;-78
2023/03/09 09:42:25;;;;;;;0.80;0.80;;;;;;;0.76;100.00;98013.03;4960512;28;20120;-78
2023/03/09 09:44:52;;;;;;;0.70;0.70;;;;;;;0.80;100.00;98022.25;4960365;28;20041;-78
2023/03/09 09:47:24;;;;;;;2.08;1.65;;;;;;;0.82;100.00;98004.38;4994892;28;20037;-78
2023/03/09 09:49:52;;;;;;;1.15;1.08;;;;;;;0.83;100.00;97984.88;4980464;28;20058;-79
2023/03/09 09:52:59;;;;;;;1.33;0.90;;;;;;;0.84;100.00;97986.50;4996624;28;20026;-82
2023/03/09 09:55:37;;;;;;;1.02;0.82;;;;;;;0.87;100.00;97986.97;4994660;28;20117;-82
2023/03/09 09:58:22;;;;;;;1.65;1.10;;;;;;;0.93;100.00;97984.56;4996716;28;20108;-79
2023/03/09 10:00:51;;;;;;;1.55;1.00;;;;;;;0.94;100.00;97983.59;4996668;28;20030;-81
2023/03/09 10:03:19;;;;;;;1.75;1.20;;;;;;;1.03;100.00;97864.25;4964216;28;20053;-79
2023/03/09 10:05:57;;;;;;;0.70;0.70;;;;;;;1.06;100.00;97977.66;4980827;28;20088;-80
2023/03/09 10:09:27;;;;;;;1.38;1.10;;;;;;;1.16;100.00;97969.41;5009974;28;20473;-81
2023/03/09 10:11:56;;;;;;;1.55;0.98;;;;;;;1.16;100.00;97956.19;4950349;28;20038;-81
2023/03/09 10:14:30;;;;;;;0.70;0.70;;;;;;;1.38;100.00;97972.97;4980612;28;20543;-80
2023/03/09 10:17:04;;;;;;;1.10;0.95;;;;;;;1.42;100.00;97952.22;4980916;28;20045;-80
2023/03/09 10:19:38;;;;;;;0.80;0.80;;;;;;;1.61;100.00;97953.47;4980486;28;20038;-79
2023/03/09 10:22:21;;;;;;;1.52;1.00;;;;;;;1.70;100.00;97963.75;4962849;28;20044;-83
2023/03/09 10:25:16;;;;;;;1.42;1.10;;;;;;;1.62;100.00;97929.44;4965801;28;20412;-83
2023/03/09 10:27:49;;;;;;;1.27;1.00;;;;;;;1.72;100.00;97942.34;4979120;28;20589;-83
2023/03/09 10:30:36;;;;;;;1.50;1.10;;;;;;;1.64;100.00;97967.16;4963750;28;20045;-85
2023/03/09 10:33:10;;;;;;;0.70;0.70;;;;;;;1.59;100.00;97971.34;4996099;28;20035;-84
2023/03/09 10:35:45;;;;;;;1.75;1.20;;;;;;;1.50;100.00;97934.41;4997270;28;20041;-84
2023/03/09 10:38:15;;;;;;;1.52;1.30;;;;;;;1.66;100.00;97982.84;4995724;28;20566;-84
2023/03/09 10:40:52;;;;;;;1.27;1.02;;;;;;;1.71;100.00;97932.78;4979958;28;20042;-85
2023/03/09 10:43:25;;;;;;;1.17;0.90;;;;;;;1.67;100.00;97977.38;4963747;28;20026;-84
2023/03/09 10:45:53;;;;;;;0.80;0.80;;;;;;;1.72;100.00;97959.09;4963944;28;20035;-86
2023/03/09 10:48:27;;;;;;;1.80;1.33;;;;;;;1.82;100.00;97948.16;4979988;28;20109;-84
2023/03/09 10:51:03;;;;;;;1.63;1.23;;;;;;;1.89;100.00;97890.78;4996083;28;20030;-84
2023/03/09 10:53:43;;;;;;;1.05;0.95;;;;;;;1.96;100.00;97917.34;4963577;28;20042;-85
2023/03/09 10:56:17;;;;;;;2.03;1.25;;;;;;;2.02;100.00;97943.06;4979772;28;20037;-85
2023/03/09 10:58:42;;;;;;;0.80;0.80;;;;;;;2.02;100.00;97939.59;4979174;28;20034;-87
2023/03/09 11:01:11;;;;;;;1.38;1.20;;;;;;;2.19;100.00;97933.00;4995248;28;20056;-84
2023/03/09 11:03:39;;;;;;;1.17;1.00;;;;;;;2.38;100.00;97931.53;4995184;28;20041;-80
2023/03/09 11:06:37;;;;;;;1.05;0.82;;;;;;;2.58;100.00;97934.31;4979061;28;20442;-84
2023/03/09 11:09:14;;;;;;;0.85;0.77;;;;;;;2.40;100.00;97919.72;4995130;28;20028;-80
2023/03/09 11:11:43;;;;;;;1.90;0.90;;;;;;;2.32;100.00;97880.09;4995368;28;20042;-86
2023/03/09 11:14:43;;;;;;;0.60;0.60;;;;;;;2.18;100.00;97937.50;4995227;28;20045;-88
2023/03/09 11:17:24;;;;;;;1.10;0.95;;;;;;;2.11;100.00;97923.38;4994984;28;20034;-81
2023/03/09 11:19:49;;;;;;;1.02;0.85;;;;;;;2.14;100.00;97906.25;4995790;28;20034;-82
2023/03/09 11:22:16;;;;;;;0.90;0.80;;;;;;;2.22;100.00;97910.59;4978882;28;20037;-82
2023/03/09 11:24:49;;;;;;;1.13;0.93;;;;;;;2.57;100.00;97904.34;4978669;28;20119;-84
2023/03/09 11:27:30;;;;;;;1.25;1.00;;;;;;;3.13;100.00;97913.19;4991500;28;20061;-84
2023/03/09 11:30:13;;;;;;;0.98;0.80;;;;;;;3.31;100.00;97902.84;4979415;28;20189;-84
2023/03/09 11:32:39;;;;;;;0.93;0.90;;;;;;;3.33;100.00;97907.94;4961026;28;20030;-84
2023/03/09 11:35:05;;;;;;;0.73;0.70;;;;;;;3.30;100.00;97891.38;4995078;28;20041;-86
2023/03/09 11:37:41;;;;;;;0.80;0.80;;;;;;;3.23;100.00;97901.19;4978906;28;20190;-87